createdAt,value
2022-07-28T00:01:10.551Z,9.30
2022-07-28T00:03:39.793Z,9.20
2022-07-28T00:06:07.725Z,9.10
2022-07-28T00:08:35.683Z,9.10
2022-07-28T00:11:03.547Z,9.10
2022-07-28T00:13:31.532Z,9.00
2022-07-28T00:15:59.610Z,8.90
2022-07-28T00:18:27.687Z,8.90
2022-07-28T00:20:58.024Z,8.80
2022-07-28T00:23:33.912Z,8.80
2022-07-28T00:26:07.679Z,8.70
2022-07-28T00:28:35.674Z,8.60
2022-07-28T00:31:05.014Z,8.60
2022-07-28T00:33:35.342Z,8.60
2022-07-28T00:36:05.136Z,8.60
2022-07-28T00:38:34.621Z,8.60
2022-07-28T00:41:11.941Z,8.60
2022-07-28T00:43:40.482Z,8.70
2022-07-28T00:46:08.600Z,8.70
2022-07-28T00:48:38.753Z,8.70
2022-07-28T00:51:09.053Z,8.70
2022-07-28T00:53:37.964Z,8.70
2022-07-28T00:56:07.089Z,8.70
2022-07-28T00:58:36.065Z,8.70
2022-07-28T01:01:04.325Z,8.60
2022-07-28T01:03:33.586Z,8.50
2022-07-28T01:06:07.633Z,8.50
2022-07-28T01:08:44.787Z,8.40
2022-07-28T01:11:26.359Z,8.40
2022-07-28T01:14:00.721Z,8.30
2022-07-28T01:16:29.545Z,8.20
2022-07-28T01:19:05.827Z,8.10
2022-07-28T01:21:36.325Z,8.10
2022-07-28T01:24:15.324Z,8.00
2022-07-28T01:26:54.556Z,7.90
2022-07-28T01:29:37.535Z,7.90
2022-07-28T01:32:09.414Z,7.90
2022-07-28T01:34:46.213Z,7.90
2022-07-28T01:37:18.274Z,7.90
2022-07-28T01:39:47.759Z,7.90
2022-07-28T01:42:17.735Z,7.90
2022-07-28T01:44:49.756Z,7.80
2022-07-28T01:47:21.024Z,7.80
2022-07-28T01:49:51.683Z,7.80
2022-07-28T01:52:21.058Z,7.80
2022-07-28T01:54:51.963Z,7.80
2022-07-28T01:57:21.507Z,7.80
2022-07-28T01:59:50.561Z,7.80
2022-07-28T02:02:22.533Z,7.70
2022-07-28T02:04:53.366Z,7.70
2022-07-28T02:07:23.371Z,7.60
2022-07-28T02:09:52.013Z,7.60
2022-07-28T02:12:21.112Z,7.60
2022-07-28T02:14:51.227Z,7.60
2022-07-28T02:17:25.560Z,7.60
2022-07-28T02:19:54.740Z,7.50
2022-07-28T02:22:22.932Z,7.50
2022-07-28T02:24:51.481Z,7.50
2022-07-28T02:27:24.561Z,7.50
2022-07-28T02:29:58.325Z,7.50
2022-07-28T02:32:33.049Z,7.50
2022-07-28T02:35:06.617Z,7.50
2022-07-28T02:37:39.999Z,7.50
2022-07-28T02:40:12.874Z,7.50
2022-07-28T02:42:42.140Z,7.50
2022-07-28T02:45:13.025Z,7.50
2022-07-28T02:47:49.480Z,7.40
2022-07-28T02:50:21.276Z,7.30
2022-07-28T02:52:50.426Z,7.30
2022-07-28T02:55:19.191Z,7.20
2022-07-28T02:57:53.169Z,7.20
2022-07-28T03:00:25.314Z,7.20
2022-07-28T03:02:55.694Z,7.10
2022-07-28T03:05:24.311Z,7.10
2022-07-28T03:07:53.689Z,7.10
2022-07-28T03:10:34.043Z,7.10
2022-07-28T03:13:04.303Z,7.10
2022-07-28T03:15:32.546Z,7.10
2022-07-28T03:18:03.117Z,7.10
2022-07-28T03:20:31.605Z,7.10
2022-07-28T03:23:00.153Z,7.10
2022-07-28T03:25:35.623Z,7.10
2022-07-28T03:28:07.432Z,7.10
2022-07-28T03:30:58.045Z,7.10
2022-07-28T03:33:28.435Z,7.00
2022-07-28T03:35:59.260Z,7.00
2022-07-28T03:38:34.674Z,7.00
2022-07-28T03:41:03.682Z,7.00
2022-07-28T03:43:34.542Z,6.90
2022-07-28T03:46:02.656Z,6.90
2022-07-28T03:48:33.474Z,6.90
2022-07-28T03:51:01.744Z,7.00
2022-07-28T03:53:31.074Z,7.00
2022-07-28T03:55:59.204Z,7.10
2022-07-28T03:58:29.273Z,7.10
2022-07-28T04:00:57.863Z,7.10
2022-07-28T04:03:43.082Z,7.20
2022-07-28T04:06:13.980Z,7.20
2022-07-28T04:08:42.419Z,7.20
2022-07-28T04:11:10.444Z,7.30
2022-07-28T04:13:38.352Z,7.30
2022-07-28T04:16:07.263Z,7.30
2022-07-28T04:18:35.945Z,7.30
2022-07-28T04:21:03.940Z,7.30
2022-07-28T04:23:34.381Z,7.40
2022-07-28T04:26:02.382Z,7.40
2022-07-28T04:28:30.271Z,7.50
2022-07-28T04:30:58.278Z,7.60
2022-07-28T04:33:26.354Z,7.70
2022-07-28T04:35:54.519Z,7.90
2022-07-28T04:38:22.384Z,8.10
2022-07-28T04:40:51.639Z,8.20
2022-07-28T04:43:19.581Z,8.50
2022-07-28T04:45:53.303Z,8.60
2022-07-28T04:48:21.568Z,8.90
2022-07-28T04:50:51.146Z,9.10
2022-07-28T04:53:19.342Z,9.30
2022-07-28T04:55:47.338Z,9.70
2022-07-28T04:58:19.529Z,10.00
2022-07-28T05:00:50.806Z,10.40
2022-07-28T05:03:19.408Z,10.70
2022-07-28T05:05:54.099Z,11.00
2022-07-28T05:08:25.713Z,11.30
2022-07-28T05:10:56.892Z,11.50
2022-07-28T05:13:31.877Z,11.70
2022-07-28T05:16:02.458Z,11.80
2022-07-28T05:18:30.500Z,12.00
2022-07-28T05:20:58.443Z,12.20
2022-07-28T05:23:26.344Z,12.40
2022-07-28T05:25:54.476Z,12.50
2022-07-28T05:28:22.370Z,12.70
2022-07-28T05:30:51.673Z,12.90
2022-07-28T05:33:19.599Z,13.20
2022-07-28T05:35:54.634Z,13.30
2022-07-28T05:38:22.685Z,13.40
2022-07-28T05:40:50.701Z,13.60
2022-07-28T05:43:18.956Z,13.80
2022-07-28T05:45:47.128Z,14.00
2022-07-28T05:48:18.323Z,14.10
2022-07-28T05:50:46.455Z,14.20
2022-07-28T05:53:14.505Z,14.30
2022-07-28T05:56:00.182Z,14.40
2022-07-28T05:58:31.623Z,14.60
2022-07-28T06:01:00.900Z,14.70
2022-07-28T06:03:32.041Z,14.90
2022-07-28T06:06:14.649Z,15.10
2022-07-28T06:08:46.095Z,15.20
2022-07-28T06:11:22.526Z,15.40
2022-07-28T06:13:52.164Z,15.50
2022-07-28T06:16:21.568Z,15.60
2022-07-28T06:18:51.370Z,15.80
2022-07-28T06:21:19.331Z,16.00
2022-07-28T06:23:47.282Z,16.10
2022-07-28T06:26:15.196Z,16.30
2022-07-28T06:28:43.111Z,16.50
2022-07-28T06:31:11.072Z,16.60
2022-07-28T06:33:39.107Z,16.70
2022-07-28T06:36:08.656Z,16.80
2022-07-28T06:38:37.246Z,16.90
2022-07-28T06:41:05.227Z,17.10
2022-07-28T06:43:38.322Z,17.20
2022-07-28T06:46:06.831Z,17.40
2022-07-28T06:48:37.472Z,17.60
2022-07-28T06:51:05.812Z,17.70
2022-07-28T06:53:35.119Z,17.80
2022-07-28T06:56:04.749Z,18.00
2022-07-28T06:58:33.272Z,18.20
2022-07-28T07:01:02.515Z,18.30
2022-07-28T07:03:30.523Z,18.40
2022-07-28T07:05:58.488Z,18.70
2022-07-28T07:08:26.437Z,18.90
2022-07-28T07:10:56.874Z,19.20
2022-07-28T07:13:24.965Z,19.40
2022-07-28T07:15:53.163Z,19.50
2022-07-28T07:18:21.153Z,19.60
2022-07-28T07:20:49.160Z,19.80
2022-07-28T07:23:17.038Z,20.00
2022-07-28T07:25:44.974Z,20.10
2022-07-28T07:28:14.182Z,20.30
2022-07-28T07:30:42.108Z,20.50
2022-07-28T07:33:10.531Z,20.70
2022-07-28T07:35:39.018Z,21.00
2022-07-28T07:38:07.254Z,21.00
2022-07-28T07:40:35.241Z,21.20
2022-07-28T07:43:03.217Z,21.30
2022-07-28T07:45:34.264Z,21.50
2022-07-28T07:48:02.568Z,21.50
2022-07-28T07:50:30.599Z,21.50
2022-07-28T07:52:58.496Z,21.80
2022-07-28T07:55:26.503Z,22.00
2022-07-28T07:57:57.180Z,21.90
2022-07-28T08:00:29.006Z,21.50
2022-07-28T08:02:59.235Z,21.50
2022-07-28T08:05:35.394Z,21.70
2022-07-28T08:08:05.816Z,22.00
2022-07-28T08:10:33.978Z,22.20
2022-07-28T08:13:03.101Z,22.30
2022-07-28T08:15:31.469Z,22.60
2022-07-28T08:18:00.783Z,22.50
2022-07-28T08:20:29.153Z,22.60
2022-07-28T08:22:58.565Z,22.60
2022-07-28T08:25:27.044Z,22.40
2022-07-28T08:27:54.944Z,22.60
2022-07-28T08:30:27.381Z,22.70
2022-07-28T08:32:58.121Z,22.80
2022-07-28T08:35:33.428Z,22.80
2022-07-28T08:38:04.520Z,22.60
2022-07-28T08:40:33.248Z,22.80
2022-07-28T08:43:05.308Z,23.00
2022-07-28T08:45:37.260Z,23.10
2022-07-28T08:48:09.118Z,23.40
2022-07-28T08:50:39.067Z,23.60
2022-07-28T08:53:08.179Z,23.80
2022-07-28T08:55:37.799Z,23.90
2022-07-28T08:58:05.984Z,24.00
2022-07-28T09:00:34.141Z,24.00
2022-07-28T09:03:04.397Z,23.70
2022-07-28T09:05:33.474Z,23.80
2022-07-28T09:08:03.813Z,23.70
2022-07-28T09:10:32.033Z,23.90
2022-07-28T09:12:59.987Z,24.10
2022-07-28T09:15:28.091Z,24.20
2022-07-28T09:17:56.462Z,24.40
2022-07-28T09:20:25.087Z,24.70
2022-07-28T09:22:58.168Z,24.90
2022-07-28T09:25:28.149Z,25.20
2022-07-28T09:27:56.189Z,25.00
2022-07-28T09:30:31.794Z,25.20
2022-07-28T09:33:42.341Z,25.30
2022-07-28T09:36:14.810Z,25.20
2022-07-28T09:38:43.268Z,25.00
2022-07-28T09:41:12.644Z,25.10
2022-07-28T09:43:42.343Z,25.20
2022-07-28T09:46:12.331Z,25.30
2022-07-28T09:48:53.910Z,25.20
2022-07-28T09:51:23.689Z,25.40
2022-07-28T09:53:52.043Z,25.40
2022-07-28T09:56:23.411Z,25.40
2022-07-28T09:58:56.036Z,25.10
2022-07-28T10:01:25.902Z,25.30
2022-07-28T10:04:02.725Z,25.30
2022-07-28T10:06:32.819Z,25.20
2022-07-28T10:09:02.919Z,25.20
2022-07-28T10:11:36.434Z,25.10
2022-07-28T10:14:08.097Z,24.70
2022-07-28T10:16:42.928Z,24.70
2022-07-28T10:19:10.994Z,24.60
2022-07-28T10:21:44.440Z,24.60
2022-07-28T10:24:21.974Z,24.60
2022-07-28T10:26:53.415Z,24.60
2022-07-28T10:29:23.248Z,24.80
2022-07-28T10:31:54.418Z,25.00
2022-07-28T10:34:25.174Z,25.00
2022-07-28T10:36:56.687Z,25.20
2022-07-28T10:39:30.096Z,25.20
2022-07-28T10:41:59.581Z,25.40
2022-07-28T10:44:27.898Z,25.50
2022-07-28T10:46:56.449Z,25.50
2022-07-28T10:49:27.673Z,25.70
2022-07-28T10:52:06.255Z,26.00
2022-07-28T10:54:44.128Z,26.30
2022-07-28T10:57:14.730Z,26.20
2022-07-28T10:59:58.653Z,26.20
2022-07-28T11:02:50.254Z,26.40
2022-07-28T11:05:30.543Z,26.40
2022-07-28T11:08:01.141Z,26.70
2022-07-28T11:10:30.525Z,26.90
2022-07-28T11:13:00.619Z,27.10
2022-07-28T11:15:34.460Z,27.30
2022-07-28T11:18:05.767Z,27.40
2022-07-28T11:21:08.036Z,27.50
2022-07-28T11:23:55.258Z,27.30
2022-07-28T11:26:38.674Z,27.30
2022-07-28T11:29:18.220Z,27.20
2022-07-28T11:32:03.623Z,27.20
2022-07-28T11:35:19.790Z,26.70
2022-07-28T11:38:10.311Z,26.50
2022-07-28T11:40:40.679Z,26.10
2022-07-28T11:43:36.190Z,25.80
2022-07-28T11:46:31.681Z,25.70
2022-07-28T11:49:27.938Z,26.10
2022-07-28T11:52:12.360Z,26.40
2022-07-28T11:54:42.747Z,26.70
2022-07-28T11:57:11.915Z,26.70
2022-07-28T11:59:50.377Z,26.60
2022-07-28T12:02:25.448Z,26.60
2022-07-28T12:04:58.533Z,26.60
2022-07-28T12:07:36.384Z,26.80
2022-07-28T12:10:51.782Z,27.00
2022-07-28T12:13:12.975Z,27.20
2022-07-28T12:15:41.029Z,27.30
2022-07-28T12:18:13.104Z,27.40
2022-07-28T12:20:48.739Z,27.30
2022-07-28T12:23:39.241Z,27.40
2022-07-28T12:26:29.142Z,27.40
2022-07-28T12:29:00.151Z,27.40
2022-07-28T12:31:33.101Z,27.30
2022-07-28T12:34:06.111Z,27.40
2022-07-28T12:36:35.020Z,27.40
2022-07-28T12:39:03.538Z,27.40
2022-07-28T12:41:33.680Z,27.40
2022-07-28T12:44:05.561Z,27.60
2022-07-28T12:46:38.983Z,27.40
2022-07-28T12:49:21.987Z,27.60
2022-07-28T12:51:50.142Z,27.70
2022-07-28T12:54:18.386Z,27.70
2022-07-28T12:56:48.077Z,27.90
2022-07-28T12:59:18.312Z,28.00
2022-07-28T13:01:51.356Z,27.80
2022-07-28T13:04:41.047Z,27.90
2022-07-28T13:07:11.096Z,28.00
2022-07-28T13:09:47.119Z,27.60
2022-07-28T13:12:19.509Z,27.70
2022-07-28T13:14:51.823Z,27.70
2022-07-28T13:17:20.486Z,27.70
2022-07-28T13:19:50.104Z,27.90
2022-07-28T13:22:27.747Z,27.90
2022-07-28T13:24:57.769Z,28.00
2022-07-28T13:27:26.216Z,27.60
2022-07-28T13:29:54.711Z,27.40
2022-07-28T13:32:22.794Z,27.50
2022-07-28T13:34:52.792Z,27.60
2022-07-28T13:37:20.786Z,27.60
2022-07-28T13:39:54.167Z,27.90
2022-07-28T13:42:23.688Z,28.10
2022-07-28T13:44:51.986Z,28.40
2022-07-28T13:47:20.192Z,28.80
2022-07-28T13:49:48.212Z,29.00
2022-07-28T13:52:32.692Z,29.20
2022-07-28T13:55:05.927Z,28.90
2022-07-28T13:57:36.692Z,28.70
2022-07-28T14:00:08.037Z,28.70
2022-07-28T14:02:36.866Z,28.60
2022-07-28T14:05:06.124Z,28.70
2022-07-28T14:07:35.439Z,28.70
2022-07-28T14:10:07.500Z,29.00
2022-07-28T14:12:37.678Z,29.30
2022-07-28T14:15:09.724Z,29.50
2022-07-28T14:17:44.085Z,29.60
2022-07-28T14:20:14.620Z,29.70
2022-07-28T14:22:44.557Z,29.60
2022-07-28T14:25:20.906Z,29.20
2022-07-28T14:27:49.613Z,28.50
2022-07-28T14:30:17.865Z,28.60
2022-07-28T14:32:45.794Z,28.80
2022-07-28T14:35:13.745Z,28.10
2022-07-28T14:40:32.060Z,28.40
2022-07-28T14:43:00.848Z,28.30
2022-07-28T14:45:29.778Z,28.50
2022-07-28T14:47:57.718Z,28.70
2022-07-28T14:50:26.111Z,28.70
2022-07-28T14:52:55.417Z,28.60
2022-07-28T14:55:23.358Z,28.40
2022-07-28T14:57:54.892Z,28.60
2022-07-28T15:00:24.727Z,28.20
2022-07-28T15:02:53.522Z,27.60
2022-07-28T15:05:22.749Z,27.60
2022-07-28T15:07:52.164Z,27.70
2022-07-28T15:10:21.886Z,27.80
2022-07-28T15:12:50.683Z,28.10
2022-07-28T15:15:21.142Z,28.30
2022-07-28T15:17:49.041Z,28.40
2022-07-28T15:20:17.114Z,28.50
2022-07-28T15:22:45.037Z,28.50
2022-07-28T15:25:14.682Z,28.60
2022-07-28T15:27:45.788Z,28.40
2022-07-28T15:30:14.632Z,28.00
2022-07-28T15:32:57.211Z,27.50
2022-07-28T15:35:27.267Z,27.70
2022-07-28T15:37:56.116Z,27.90
2022-07-28T15:40:25.169Z,28.00
2022-07-28T15:42:54.413Z,27.90
2022-07-28T15:45:22.349Z,27.80
2022-07-28T15:47:50.692Z,27.60
2022-07-28T15:50:18.594Z,27.60
2022-07-28T15:52:46.624Z,27.50
2022-07-28T15:55:14.593Z,27.40
2022-07-28T15:57:42.513Z,27.40
2022-07-28T16:00:12.485Z,27.30
2022-07-28T16:02:41.117Z,27.20
2022-07-28T16:05:09.731Z,26.90
2022-07-28T16:07:41.832Z,26.60
2022-07-28T16:10:12.603Z,26.40
2022-07-28T16:12:40.585Z,26.30
2022-07-28T16:15:09.511Z,26.10
2022-07-28T16:17:38.782Z,25.50
2022-07-28T16:20:10.301Z,25.40
2022-07-28T16:22:40.639Z,25.40
2022-07-28T16:25:11.865Z,25.40
2022-07-28T16:27:44.501Z,25.50
2022-07-28T16:30:13.402Z,25.50
2022-07-28T16:32:43.126Z,25.20
2022-07-28T16:35:11.626Z,25.00
2022-07-28T16:37:40.218Z,25.10
2022-07-28T16:40:09.608Z,24.80
2022-07-28T16:42:37.692Z,24.80
2022-07-28T16:45:06.635Z,24.90
2022-07-28T16:47:34.571Z,24.80
2022-07-28T16:50:05.426Z,24.80
2022-07-28T16:52:36.344Z,24.80
2022-07-28T16:55:04.744Z,24.70
2022-07-28T16:57:32.661Z,24.80
2022-07-28T17:00:00.590Z,24.80
2022-07-28T17:02:28.525Z,24.80
2022-07-28T17:04:56.511Z,24.60
2022-07-28T17:07:26.066Z,24.50
2022-07-28T17:09:54.046Z,24.50
2022-07-28T17:12:22.111Z,24.40
2022-07-28T17:14:50.034Z,24.40
2022-07-28T17:17:17.906Z,24.30
2022-07-28T17:19:47.717Z,24.20
2022-07-28T17:22:16.269Z,24.00
2022-07-28T17:24:46.165Z,24.00
2022-07-28T17:30:02.088Z,23.80
2022-07-28T17:32:30.019Z,23.70
2022-07-28T17:34:57.982Z,23.80
2022-07-28T17:37:27.261Z,23.70
2022-07-28T17:39:57.250Z,23.60
2022-07-28T17:42:25.169Z,23.60
2022-07-28T17:44:56.109Z,23.70
2022-07-28T17:47:36.069Z,23.70
2022-07-28T17:50:07.181Z,23.60
2022-07-28T17:52:35.086Z,23.60
2022-07-28T17:55:23.974Z,23.50
2022-07-28T17:57:52.776Z,23.50
2022-07-28T18:00:22.655Z,23.30
2022-07-28T18:02:50.721Z,23.20
2022-07-28T18:05:19.383Z,23.20
2022-07-28T18:07:50.080Z,23.00
2022-07-28T18:10:25.012Z,23.00
2022-07-28T18:12:55.134Z,23.00
2022-07-28T18:15:23.081Z,22.90
2022-07-28T18:17:55.124Z,22.90
2022-07-28T18:20:24.172Z,22.80
2022-07-28T18:22:52.290Z,22.80
2022-07-28T18:25:21.654Z,22.70
2022-07-28T18:27:49.866Z,22.60
2022-07-28T18:30:18.142Z,22.60
2022-07-28T18:32:46.252Z,22.50
2022-07-28T18:35:14.219Z,22.40
2022-07-28T18:37:45.938Z,22.30
2022-07-28T18:40:15.708Z,22.20
2022-07-28T18:42:46.295Z,22.20
2022-07-28T18:45:14.631Z,22.20
2022-07-28T18:47:46.607Z,22.20
2022-07-28T18:50:30.942Z,22.10
2022-07-28T18:53:00.286Z,22.10
2022-07-28T18:55:28.411Z,22.00
2022-07-28T18:57:57.884Z,21.90
2022-07-28T19:00:25.965Z,21.80
2022-07-28T19:02:54.000Z,21.70
2022-07-28T19:05:22.972Z,21.60
2022-07-28T19:07:54.615Z,21.50
2022-07-28T19:10:23.072Z,21.30
2022-07-28T19:12:51.434Z,21.20
2022-07-28T19:15:21.283Z,21.00
2022-07-28T19:18:09.804Z,20.80
2022-07-28T19:20:38.096Z,20.70
2022-07-28T19:23:06.197Z,20.40
2022-07-28T19:25:36.136Z,20.30
2022-07-28T19:28:04.697Z,20.10
2022-07-28T19:30:35.141Z,19.90
2022-07-28T19:33:03.522Z,19.70
2022-07-28T19:35:31.918Z,19.60
2022-07-28T19:38:01.066Z,19.40
2022-07-28T19:40:31.894Z,19.20
2022-07-28T19:43:00.620Z,19.00
2022-07-28T19:45:28.825Z,18.80
2022-07-28T19:47:58.822Z,18.60
2022-07-28T19:50:26.984Z,18.40
2022-07-28T19:52:55.514Z,18.30
2022-07-28T19:55:26.940Z,18.10
2022-07-28T19:57:59.271Z,18.00
2022-07-28T20:00:27.875Z,17.90
2022-07-28T20:02:56.558Z,17.80
2022-07-28T20:05:27.947Z,17.60
2022-07-28T20:07:56.200Z,17.50
2022-07-28T20:10:24.849Z,17.40
2022-07-28T20:12:52.957Z,17.30
2022-07-28T20:15:21.083Z,17.20
2022-07-28T20:17:49.484Z,17.10
2022-07-28T20:20:17.861Z,17.00
2022-07-28T20:22:47.653Z,16.90
2022-07-28T20:25:16.270Z,16.80
2022-07-28T20:27:44.431Z,16.70
2022-07-28T20:30:13.959Z,16.60
2022-07-28T20:32:44.089Z,16.40
2022-07-28T20:35:13.001Z,16.40
2022-07-28T20:37:40.991Z,16.20
2022-07-28T20:40:11.302Z,16.20
2022-07-28T20:42:39.833Z,16.10
2022-07-28T20:45:08.938Z,16.00
2022-07-28T20:47:37.362Z,16.00
2022-07-28T20:50:06.995Z,15.90
2022-07-28T20:52:35.430Z,15.80
2022-07-28T20:55:04.607Z,15.80
2022-07-28T20:57:34.601Z,15.70
2022-07-28T21:00:03.343Z,15.60
2022-07-28T21:02:31.782Z,15.50
2022-07-28T21:05:00.293Z,15.50
2022-07-28T21:08:00.759Z,15.40
2022-07-28T21:10:17.547Z,15.40
2022-07-28T21:12:46.973Z,15.30
2022-07-28T21:15:15.419Z,15.20
2022-07-28T21:17:44.209Z,15.10
2022-07-28T21:20:15.554Z,15.00
2022-07-28T21:22:44.224Z,15.00
2022-07-28T21:25:13.588Z,14.90
2022-07-28T21:28:00.472Z,14.90
2022-07-28T21:30:34.206Z,14.80
2022-07-28T21:33:02.448Z,14.80
2022-07-28T21:35:30.613Z,14.70
2022-07-28T21:37:58.507Z,14.70
2022-07-28T21:40:27.127Z,14.70
2022-07-28T21:42:55.345Z,14.70
2022-07-28T21:45:23.302Z,14.70
2022-07-28T21:47:52.637Z,14.70
2022-07-28T21:50:20.596Z,14.70
2022-07-28T21:52:48.480Z,14.60
2022-07-28T21:55:16.570Z,14.60
2022-07-28T21:57:44.441Z,14.60
2022-07-28T22:00:13.654Z,14.50
2022-07-28T22:02:41.880Z,14.50
2022-07-28T22:05:39.826Z,14.50
2022-07-28T22:08:08.655Z,14.40
2022-07-28T22:10:36.630Z,14.40
2022-07-28T22:13:04.562Z,14.30
2022-07-28T22:15:32.495Z,14.30
2022-07-28T22:18:00.450Z,14.20
2022-07-28T22:20:28.385Z,14.20
2022-07-28T22:22:57.590Z,14.10
2022-07-28T22:25:25.674Z,14.10
2022-07-28T22:27:53.842Z,14.10
2022-07-28T22:30:22.172Z,14.00
2022-07-28T22:32:50.092Z,14.00
2022-07-28T22:35:18.324Z,13.90
2022-07-28T22:37:46.280Z,13.80
2022-07-28T22:40:16.434Z,13.70
2022-07-28T22:42:45.000Z,13.70
2022-07-28T22:45:13.601Z,13.60
2022-07-28T22:47:41.833Z,13.60
2022-07-28T22:50:11.346Z,13.60
2022-07-28T22:52:39.432Z,13.60
2022-07-28T22:55:08.479Z,13.60
2022-07-28T22:57:37.757Z,13.60
2022-07-28T23:00:07.569Z,13.60
2022-07-28T23:02:35.744Z,13.60
2022-07-28T23:05:05.968Z,13.60
2022-07-28T23:07:51.015Z,13.60
2022-07-28T23:10:21.587Z,13.60
2022-07-28T23:12:50.881Z,13.60
2022-07-28T23:15:18.906Z,13.60
2022-07-28T23:17:46.777Z,13.60
2022-07-28T23:20:14.971Z,13.60
2022-07-28T23:22:42.865Z,13.60
2022-07-28T23:25:11.341Z,13.50
2022-07-28T23:27:39.391Z,13.50
2022-07-28T23:30:09.629Z,13.50
2022-07-28T23:32:37.517Z,13.50
2022-07-28T23:35:06.232Z,13.50
2022-07-28T23:37:34.832Z,13.50
2022-07-28T23:40:04.541Z,13.50
2022-07-28T23:42:32.468Z,13.50
2022-07-28T23:45:00.358Z,13.50
2022-07-28T23:47:29.589Z,13.60
2022-07-28T23:49:57.589Z,13.60
2022-07-28T23:52:25.433Z,13.60
2022-07-28T23:54:53.399Z,13.60
2022-07-28T23:57:21.348Z,13.50
2022-07-28T23:59:49.355Z,13.50
